ANS1990 SABE-SAZB
Flight info
| Callsign | ANS1990 |
|---|---|
| Flight time | 1h 4m |
| Altitude | 36000 |
| Route | PAL9 GBE UT694 XODIK UW18 MOXAN MOXA2Q |
| Aircraft | MD83/M-SDFGIRWY/S |
Departure
| Time | 2026-05-09 19:35 |
|---|---|
| Airport | Aeroparque Jorge Newbery (SABE) |
Arrival
| Time | 2026-05-09 20:40 |
|---|---|
| Airport | Comandante Espora Airport (SAZB) |
| Time | Latitude | Longitude | Altitude | Speed | Heading |
|---|---|---|---|---|---|
| 2026-05-09 18:46 | -34.55858 | -58.41331 | 28 ft | 0 kts | 266° |
| 2026-05-09 19:23 | -34.55858 | -58.41322 | 28 ft | 4 kts | 266° |
| 2026-05-09 19:23 | -34.55857 | -58.41289 | 28 ft | 4 kts | 269° |
| 2026-05-09 19:23 | -34.55858 | -58.41259 | 28 ft | 3 kts | 280° |
| 2026-05-09 19:23 | -34.55865 | -58.41233 | 28 ft | 3 kts | 297° |
| 2026-05-09 19:24 | -34.55873 | -58.41217 | 28 ft | 2 kts | 304° |
| 2026-05-09 19:24 | -34.55880 | -58.41206 | 28 ft | 2 kts | 306° |
| 2026-05-09 19:24 | -34.55886 | -58.41195 | 28 ft | 2 kts | 307° |
| 2026-05-09 19:24 | -34.55888 | -58.41192 | 28 ft | 0 kts | 307° |
| 2026-05-09 19:28 | -34.55886 | -58.41195 | 28 ft | 1 kts | 307° |
| 2026-05-09 19:29 | -34.55878 | -58.41208 | 28 ft | 2 kts | 307° |
| 2026-05-09 19:29 | -34.55865 | -58.41229 | 28 ft | 4 kts | 307° |
| 2026-05-09 19:29 | -34.55861 | -58.41259 | 28 ft | 4 kts | 255° |
| 2026-05-09 19:29 | -34.55879 | -58.41286 | 28 ft | 5 kts | 216° |
| 2026-05-09 19:30 | -34.55905 | -58.41314 | 28 ft | 5 kts | 246° |
| 2026-05-09 19:30 | -34.55899 | -58.41358 | 28 ft | 6 kts | 295° |
| 2026-05-09 19:30 | -34.55879 | -58.41406 | 27 ft | 7 kts | 297° |
| 2026-05-09 19:30 | -34.55855 | -58.41465 | 27 ft | 8 kts | 297° |
| 2026-05-09 19:31 | -34.55826 | -58.41533 | 27 ft | 10 kts | 297° |
| 2026-05-09 19:31 | -34.55795 | -58.41608 | 27 ft | 10 kts | 297° |
| 2026-05-09 19:31 | -34.55760 | -58.41688 | 27 ft | 11 kts | 297° |
| 2026-05-09 19:31 | -34.55722 | -58.41776 | 27 ft | 12 kts | 301° |
| 2026-05-09 19:32 | -34.55673 | -58.41864 | 27 ft | 12 kts | 303° |
| 2026-05-09 19:32 | -34.55624 | -58.41952 | 28 ft | 13 kts | 304° |
| 2026-05-09 19:32 | -34.55573 | -58.42040 | 28 ft | 13 kts | 306° |
| 2026-05-09 19:32 | -34.55517 | -58.42131 | 28 ft | 14 kts | 306° |
| 2026-05-09 19:33 | -34.55460 | -58.42224 | 28 ft | 14 kts | 306° |
| 2026-05-09 19:33 | -34.55406 | -58.42313 | 28 ft | 13 kts | 306° |
| 2026-05-09 19:33 | -34.55365 | -58.42394 | 27 ft | 11 kts | 288° |
| 2026-05-09 19:33 | -34.55367 | -58.42489 | 27 ft | 11 kts | 251° |
| 2026-05-09 19:34 | -34.55395 | -58.42513 | 28 ft | 3 kts | 171° |
| 2026-05-09 19:34 | -34.55411 | -58.42494 | 28 ft | 4 kts | 126° |
| 2026-05-09 19:34 | -34.55431 | -58.42461 | 28 ft | 8 kts | 124° |
| 2026-05-09 19:34 | -34.55501 | -58.42336 | 29 ft | 38 kts | 124° |
| 2026-05-09 19:35 | -34.55769 | -58.41853 | 27 ft | 103 kts | 124° |
| 2026-05-09 19:35 | -34.56281 | -58.40929 | 30 ft | 161 kts | 124° |
| 2026-05-09 19:35 | -34.56943 | -58.39731 | 590 ft | 168 kts | 125° |
| 2026-05-09 19:35 | -34.57512 | -58.38516 | 1480 ft | 171 kts | 115° |
| 2026-05-09 19:36 | -34.57664 | -58.36970 | 1979 ft | 197 kts | 91° |
| 2026-05-09 19:36 | -34.57403 | -58.35300 | 2631 ft | 213 kts | 72° |
| 2026-05-09 19:36 | -34.56579 | -58.33705 | 3221 ft | 231 kts | 43° |
| 2026-05-09 19:36 | -34.55318 | -58.32400 | 3967 ft | 239 kts | 39° |
| 2026-05-09 19:37 | -34.54121 | -58.30949 | 4563 ft | 258 kts | 57° |
| 2026-05-09 19:37 | -34.53244 | -58.28936 | 4925 ft | 281 kts | 77° |
| 2026-05-09 19:37 | -34.53093 | -58.26580 | 5120 ft | 275 kts | 105° |
| 2026-05-09 19:37 | -34.53694 | -58.24418 | 5807 ft | 267 kts | 130° |
| 2026-05-09 19:38 | -34.54978 | -58.22871 | 6760 ft | 257 kts | 151° |
| 2026-05-09 19:38 | -34.56494 | -58.21684 | 7539 ft | 261 kts | 153° |
| 2026-05-09 19:38 | -34.58042 | -58.20523 | 8303 ft | 266 kts | 153° |
| 2026-05-09 19:38 | -34.59650 | -58.19345 | 9102 ft | 270 kts | 154° |
| 2026-05-09 19:39 | -34.61281 | -58.18167 | 9909 ft | 275 kts | 154° |
| 2026-05-09 19:39 | -34.62930 | -58.16970 | 10421 ft | 288 kts | 153° |
| 2026-05-09 19:39 | -34.64736 | -58.15646 | 10581 ft | 312 kts | 153° |
| 2026-05-09 19:39 | -34.66637 | -58.14227 | 10763 ft | 332 kts | 152° |
| 2026-05-09 19:40 | -34.68642 | -58.12696 | 10977 ft | 349 kts | 151° |
| 2026-05-09 19:40 | -34.70732 | -58.11068 | 11535 ft | 355 kts | 150° |
| 2026-05-09 19:40 | -34.72782 | -58.09449 | 12236 ft | 356 kts | 150° |
| 2026-05-09 19:40 | -34.74860 | -58.07800 | 12899 ft | 358 kts | 150° |
| 2026-05-09 19:41 | -34.76957 | -58.06136 | 13516 ft | 362 kts | 151° |
| 2026-05-09 19:41 | -34.79089 | -58.04450 | 14086 ft | 366 kts | 151° |
| 2026-05-09 19:41 | -34.81255 | -58.02741 | 14669 ft | 368 kts | 151° |
| 2026-05-09 19:41 | -34.83405 | -58.01047 | 15278 ft | 370 kts | 151° |
| 2026-05-09 19:42 | -34.85548 | -57.99359 | 15884 ft | 371 kts | 151° |
| 2026-05-09 19:42 | -34.87712 | -57.97655 | 16482 ft | 372 kts | 151° |
| 2026-05-09 19:42 | -34.89899 | -57.95934 | 17043 ft | 375 kts | 151° |
| 2026-05-09 19:42 | -34.92104 | -57.94197 | 17607 ft | 378 kts | 151° |
| 2026-05-09 19:43 | -34.94324 | -57.92482 | 18218 ft | 378 kts | 156° |
| 2026-05-09 19:43 | -34.96775 | -57.91462 | 18688 ft | 373 kts | 176° |
| 2026-05-09 19:43 | -34.99356 | -57.91641 | 19126 ft | 372 kts | 196° |
| 2026-05-09 19:43 | -35.01775 | -57.92836 | 19559 ft | 375 kts | 207° |
| 2026-05-09 19:44 | -35.04081 | -57.94350 | 19980 ft | 379 kts | 209° |
| 2026-05-09 19:44 | -35.06365 | -57.95979 | 20415 ft | 383 kts | 210° |
| 2026-05-09 19:44 | -35.08663 | -57.97691 | 20903 ft | 386 kts | 211° |
| 2026-05-09 19:44 | -35.10953 | -57.99425 | 21336 ft | 390 kts | 211° |
| 2026-05-09 19:45 | -35.13274 | -58.01176 | 21759 ft | 394 kts | 211° |
| 2026-05-09 19:45 | -35.15624 | -58.02927 | 22230 ft | 396 kts | 211° |
| 2026-05-09 19:45 | -35.17965 | -58.04650 | 22632 ft | 400 kts | 211° |
| 2026-05-09 19:45 | -35.20387 | -58.06416 | 23051 ft | 404 kts | 211° |
| 2026-05-09 19:46 | -35.22824 | -58.08184 | 23472 ft | 407 kts | 211° |
| 2026-05-09 19:46 | -35.25249 | -58.09939 | 23847 ft | 410 kts | 211° |
| 2026-05-09 19:46 | -35.27717 | -58.11728 | 24221 ft | 413 kts | 211° |
| 2026-05-09 19:46 | -35.30190 | -58.13523 | 24616 ft | 414 kts | 211° |
| 2026-05-09 19:47 | -35.32663 | -58.15322 | 25002 ft | 416 kts | 211° |
| 2026-05-09 19:47 | -35.35154 | -58.17138 | 25353 ft | 418 kts | 211° |
| 2026-05-09 19:47 | -35.37667 | -58.18978 | 25691 ft | 421 kts | 211° |
| 2026-05-09 19:47 | -35.40201 | -58.20836 | 26077 ft | 422 kts | 211° |
| 2026-05-09 19:48 | -35.42693 | -58.22664 | 26459 ft | 423 kts | 211° |
| 2026-05-09 19:48 | -35.45232 | -58.24526 | 26817 ft | 425 kts | 211° |
| 2026-05-09 19:48 | -35.46955 | -58.25788 | 27031 ft | 427 kts | 211° |
| 2026-05-09 19:48 | -35.49486 | -58.27643 | 27488 ft | 426 kts | 211° |
| 2026-05-09 19:49 | -35.52044 | -58.29517 | 28057 ft | 423 kts | 211° |
| 2026-05-09 19:49 | -35.54554 | -58.31359 | 28622 ft | 419 kts | 211° |
| 2026-05-09 19:49 | -35.57047 | -58.33188 | 29120 ft | 418 kts | 211° |
| 2026-05-09 19:49 | -35.59531 | -58.35013 | 29549 ft | 417 kts | 211° |
| 2026-05-09 19:50 | -35.62013 | -58.36838 | 29976 ft | 416 kts | 211° |
| 2026-05-09 19:50 | -35.64501 | -58.38668 | 30383 ft | 415 kts | 211° |
| 2026-05-09 19:50 | -35.66946 | -58.40470 | 30784 ft | 412 kts | 211° |
| 2026-05-09 19:50 | -35.69416 | -58.42292 | 31183 ft | 410 kts | 211° |
| 2026-05-09 19:51 | -35.71858 | -58.44093 | 31536 ft | 409 kts | 210° |
| 2026-05-09 19:51 | -35.74284 | -58.45881 | 31876 ft | 408 kts | 210° |
| 2026-05-09 19:51 | -35.76723 | -58.47707 | 32217 ft | 407 kts | 211° |
| 2026-05-09 19:51 | -35.79127 | -58.49557 | 32585 ft | 405 kts | 211° |
| 2026-05-09 19:52 | -35.81494 | -58.51395 | 32923 ft | 403 kts | 210° |
| 2026-05-09 19:52 | -35.83871 | -58.53243 | 33267 ft | 402 kts | 210° |
| 2026-05-09 19:52 | -35.86226 | -58.55068 | 33550 ft | 401 kts | 210° |
| 2026-05-09 19:52 | -35.88595 | -58.56897 | 33835 ft | 401 kts | 209° |
| 2026-05-09 19:53 | -35.90945 | -58.58708 | 34128 ft | 399 kts | 209° |
| 2026-05-09 19:53 | -35.93314 | -58.60531 | 34381 ft | 398 kts | 208° |
| 2026-05-09 19:53 | -35.95648 | -58.62323 | 34605 ft | 397 kts | 208° |
| 2026-05-09 19:53 | -35.98003 | -58.64131 | 34789 ft | 398 kts | 208° |
| 2026-05-09 19:54 | -36.00338 | -58.65927 | 34947 ft | 399 kts | 208° |
| 2026-05-09 19:54 | -36.02699 | -58.67746 | 35145 ft | 399 kts | 208° |
| 2026-05-09 19:54 | -36.05064 | -58.69571 | 35365 ft | 398 kts | 208° |
| 2026-05-09 19:54 | -36.07388 | -58.71367 | 35573 ft | 397 kts | 208° |
| 2026-05-09 19:55 | -36.09735 | -58.73181 | 35765 ft | 397 kts | 208° |
| 2026-05-09 19:55 | -36.12089 | -58.75003 | 35931 ft | 398 kts | 208° |
| 2026-05-09 19:56 | -36.19169 | -58.80510 | 36068 ft | 404 kts | 208° |
| 2026-05-09 19:56 | -36.23922 | -58.84214 | 36081 ft | 400 kts | 208° |
| 2026-05-09 19:57 | -36.28588 | -58.87848 | 36083 ft | 396 kts | 208° |
| 2026-05-09 19:57 | -36.33254 | -58.91480 | 36086 ft | 397 kts | 208° |
| 2026-05-09 19:58 | -36.37956 | -58.95143 | 36086 ft | 398 kts | 208° |
| 2026-05-09 19:58 | -36.42630 | -58.98791 | 36089 ft | 399 kts | 208° |
| 2026-05-09 19:59 | -36.47326 | -59.02465 | 36086 ft | 397 kts | 208° |
| 2026-05-09 19:59 | -36.51970 | -59.06119 | 36094 ft | 394 kts | 208° |
| 2026-05-09 20:00 | -36.56578 | -59.09744 | 36091 ft | 393 kts | 208° |
| 2026-05-09 20:00 | -36.61206 | -59.13381 | 36100 ft | 392 kts | 208° |
| 2026-05-09 20:01 | -36.65806 | -59.16999 | 36098 ft | 391 kts | 208° |
| 2026-05-09 20:01 | -36.70414 | -59.20629 | 36091 ft | 390 kts | 208° |
| 2026-05-09 20:02 | -36.74991 | -59.24239 | 36101 ft | 388 kts | 208° |
| 2026-05-09 20:02 | -36.79528 | -59.27825 | 36097 ft | 385 kts | 208° |
| 2026-05-09 20:03 | -36.86292 | -59.33192 | 36098 ft | 383 kts | 209° |
| 2026-05-09 20:03 | -36.90777 | -59.36759 | 36085 ft | 383 kts | 209° |
| 2026-05-09 20:04 | -36.95250 | -59.40315 | 36085 ft | 382 kts | 209° |
| 2026-05-09 20:04 | -36.99751 | -59.43897 | 36076 ft | 381 kts | 209° |
| 2026-05-09 20:05 | -37.04207 | -59.47447 | 36083 ft | 382 kts | 209° |
| 2026-05-09 20:05 | -37.08697 | -59.51027 | 36078 ft | 383 kts | 208° |
| 2026-05-09 20:06 | -37.13187 | -59.54611 | 36077 ft | 383 kts | 208° |
| 2026-05-09 20:06 | -37.17692 | -59.58209 | 36079 ft | 384 kts | 208° |
| 2026-05-09 20:07 | -37.22143 | -59.61916 | 36089 ft | 385 kts | 210° |
| 2026-05-09 20:07 | -37.26569 | -59.65712 | 36095 ft | 384 kts | 210° |
| 2026-05-09 20:08 | -37.33176 | -59.71341 | 36105 ft | 382 kts | 210° |
| 2026-05-09 20:09 | -37.37577 | -59.75068 | 36106 ft | 382 kts | 209° |
| 2026-05-09 20:09 | -37.41971 | -59.78791 | 36108 ft | 382 kts | 210° |
| 2026-05-09 20:10 | -37.46390 | -59.82544 | 36111 ft | 381 kts | 209° |
| 2026-05-09 20:10 | -37.50771 | -59.86272 | 36110 ft | 381 kts | 210° |
| 2026-05-09 20:11 | -37.55154 | -59.90012 | 36117 ft | 381 kts | 209° |
| 2026-05-09 20:11 | -37.59524 | -59.93760 | 36115 ft | 380 kts | 210° |
| 2026-05-09 20:12 | -37.63893 | -59.97505 | 36119 ft | 377 kts | 209° |
| 2026-05-09 20:12 | -37.68220 | -60.01211 | 36122 ft | 375 kts | 209° |
| 2026-05-09 20:13 | -37.72511 | -60.04888 | 36121 ft | 374 kts | 209° |
| 2026-05-09 20:13 | -37.76846 | -60.08607 | 36124 ft | 374 kts | 209° |
| 2026-05-09 20:14 | -37.81130 | -60.12288 | 36124 ft | 373 kts | 209° |
| 2026-05-09 20:14 | -37.85417 | -60.15978 | 36128 ft | 372 kts | 209° |
| 2026-05-09 20:15 | -37.89686 | -60.19662 | 36122 ft | 372 kts | 209° |
| 2026-05-09 20:15 | -37.93951 | -60.23364 | 35901 ft | 372 kts | 209° |
| 2026-05-09 20:15 | -37.96085 | -60.25216 | 35542 ft | 371 kts | 208° |
| 2026-05-09 20:16 | -37.98197 | -60.27053 | 35091 ft | 368 kts | 208° |
| 2026-05-09 20:16 | -38.00309 | -60.28891 | 34580 ft | 364 kts | 208° |
| 2026-05-09 20:16 | -38.02391 | -60.30700 | 34025 ft | 361 kts | 207° |
| 2026-05-09 20:16 | -38.04467 | -60.32499 | 33403 ft | 361 kts | 207° |
| 2026-05-09 20:17 | -38.06564 | -60.34302 | 32794 ft | 365 kts | 207° |
| 2026-05-09 20:17 | -38.08672 | -60.36110 | 32187 ft | 370 kts | 207° |
| 2026-05-09 20:17 | -38.10820 | -60.37955 | 31580 ft | 376 kts | 208° |
| 2026-05-09 20:17 | -38.12975 | -60.39814 | 30988 ft | 380 kts | 208° |
| 2026-05-09 20:18 | -38.15122 | -60.41903 | 30389 ft | 393 kts | 220° |
| 2026-05-09 20:18 | -38.16694 | -60.44797 | 29778 ft | 413 kts | 236° |
| 2026-05-09 20:18 | -38.17828 | -60.48192 | 29119 ft | 414 kts | 240° |
| 2026-05-09 20:18 | -38.18856 | -60.51601 | 28446 ft | 408 kts | 240° |
| 2026-05-09 20:19 | -38.19860 | -60.54933 | 27777 ft | 402 kts | 240° |
| 2026-05-09 20:19 | -38.20869 | -60.58220 | 27137 ft | 395 kts | 240° |
| 2026-05-09 20:19 | -38.21879 | -60.61418 | 26508 ft | 388 kts | 239° |
| 2026-05-09 20:19 | -38.22905 | -60.64578 | 25890 ft | 382 kts | 239° |
| 2026-05-09 20:20 | -38.23919 | -60.67632 | 25295 ft | 377 kts | 239° |
| 2026-05-09 20:20 | -38.24939 | -60.70666 | 24683 ft | 372 kts | 239° |
| 2026-05-09 20:20 | -38.25960 | -60.73690 | 24091 ft | 368 kts | 239° |
| 2026-05-09 20:20 | -38.26964 | -60.76667 | 23439 ft | 365 kts | 239° |
| 2026-05-09 20:21 | -38.27966 | -60.79648 | 22764 ft | 361 kts | 239° |
| 2026-05-09 20:21 | -38.28933 | -60.82544 | 22164 ft | 355 kts | 239° |
| 2026-05-09 20:21 | -38.29894 | -60.85434 | 21595 ft | 349 kts | 239° |
| 2026-05-09 20:21 | -38.30826 | -60.88237 | 21031 ft | 344 kts | 239° |
| 2026-05-09 20:22 | -38.31752 | -60.91030 | 20487 ft | 338 kts | 239° |
| 2026-05-09 20:22 | -38.32650 | -60.93745 | 19958 ft | 333 kts | 239° |
| 2026-05-09 20:22 | -38.33542 | -60.96461 | 19415 ft | 328 kts | 239° |
| 2026-05-09 20:22 | -38.34423 | -60.99143 | 18897 ft | 329 kts | 239° |
| 2026-05-09 20:23 | -38.35326 | -61.01857 | 18362 ft | 340 kts | 239° |
| 2026-05-09 20:23 | -38.36254 | -61.04648 | 17755 ft | 341 kts | 240° |
| 2026-05-09 20:23 | -38.37151 | -61.07414 | 17197 ft | 340 kts | 244° |
| 2026-05-09 20:23 | -38.37774 | -61.10360 | 16624 ft | 343 kts | 250° |
| 2026-05-09 20:24 | -38.38229 | -61.13348 | 16064 ft | 340 kts | 252° |
| 2026-05-09 20:24 | -38.38645 | -61.16285 | 15503 ft | 337 kts | 252° |
| 2026-05-09 20:24 | -38.39058 | -61.19206 | 14948 ft | 335 kts | 252° |
| 2026-05-09 20:24 | -38.39481 | -61.22138 | 14371 ft | 333 kts | 252° |
| 2026-05-09 20:25 | -38.39906 | -61.25008 | 13789 ft | 330 kts | 252° |
| 2026-05-09 20:25 | -38.40340 | -61.27855 | 13169 ft | 326 kts | 251° |
| 2026-05-09 20:25 | -38.40776 | -61.30659 | 12594 ft | 320 kts | 251° |
| 2026-05-09 20:25 | -38.41211 | -61.33429 | 12045 ft | 314 kts | 251° |
| 2026-05-09 20:26 | -38.41642 | -61.36136 | 11562 ft | 311 kts | 251° |
| 2026-05-09 20:26 | -38.42075 | -61.38830 | 11043 ft | 309 kts | 252° |
| 2026-05-09 20:26 | -38.42503 | -61.41499 | 10695 ft | 298 kts | 252° |
| 2026-05-09 20:26 | -38.42892 | -61.43988 | 10542 ft | 281 kts | 252° |
| 2026-05-09 20:27 | -38.43264 | -61.46385 | 10394 ft | 266 kts | 251° |
| 2026-05-09 20:27 | -38.43610 | -61.48613 | 10247 ft | 253 kts | 251° |
| 2026-05-09 20:27 | -38.43947 | -61.50765 | 10173 ft | 242 kts | 251° |
| 2026-05-09 20:27 | -38.44285 | -61.52866 | 10076 ft | 247 kts | 250° |
| 2026-05-09 20:28 | -38.44646 | -61.55050 | 9682 ft | 253 kts | 251° |
| 2026-05-09 20:28 | -38.45009 | -61.57254 | 9309 ft | 252 kts | 251° |
| 2026-05-09 20:28 | -38.45360 | -61.59411 | 8960 ft | 249 kts | 251° |
| 2026-05-09 20:29 | -38.46044 | -61.63733 | 8279 ft | 247 kts | 252° |
| 2026-05-09 20:29 | -38.46380 | -61.65897 | 7944 ft | 247 kts | 252° |
| 2026-05-09 20:29 | -38.46710 | -61.68029 | 7623 ft | 247 kts | 253° |
| 2026-05-09 20:29 | -38.47042 | -61.70168 | 7292 ft | 247 kts | 253° |
| 2026-05-09 20:30 | -38.47375 | -61.72332 | 7072 ft | 242 kts | 254° |
| 2026-05-09 20:30 | -38.47687 | -61.74434 | 6996 ft | 242 kts | 254° |
| 2026-05-09 20:30 | -38.47999 | -61.76537 | 6930 ft | 244 kts | 254° |
| 2026-05-09 20:30 | -38.48323 | -61.78698 | 6826 ft | 246 kts | 254° |
| 2026-05-09 20:31 | -38.48645 | -61.80831 | 6700 ft | 246 kts | 254° |
| 2026-05-09 20:31 | -38.48971 | -61.82979 | 6580 ft | 246 kts | 254° |
| 2026-05-09 20:31 | -38.49187 | -61.84395 | 6490 ft | 245 kts | 254° |
| 2026-05-09 20:31 | -38.49512 | -61.86542 | 6364 ft | 243 kts | 254° |
| 2026-05-09 20:32 | -38.49920 | -61.89238 | 6240 ft | 242 kts | 255° |
| 2026-05-09 20:32 | -38.50137 | -61.90660 | 6173 ft | 242 kts | 255° |
| 2026-05-09 20:32 | -38.50460 | -61.92761 | 6056 ft | 242 kts | 255° |
| 2026-05-09 20:32 | -38.50780 | -61.94867 | 5950 ft | 241 kts | 255° |
| 2026-05-09 20:33 | -38.51099 | -61.96977 | 5845 ft | 240 kts | 255° |
| 2026-05-09 20:33 | -38.51414 | -61.99060 | 5742 ft | 240 kts | 255° |
| 2026-05-09 20:33 | -38.51729 | -62.01136 | 5624 ft | 230 kts | 254° |
| 2026-05-09 20:33 | -38.52025 | -62.03095 | 5537 ft | 224 kts | 255° |
| 2026-05-09 20:34 | -38.52322 | -62.05055 | 5471 ft | 223 kts | 254° |
| 2026-05-09 20:34 | -38.52619 | -62.06994 | 5396 ft | 223 kts | 254° |
| 2026-05-09 20:34 | -38.52920 | -62.08956 | 5324 ft | 224 kts | 254° |
| 2026-05-09 20:34 | -38.53219 | -62.10905 | 5251 ft | 224 kts | 254° |
| 2026-05-09 20:35 | -38.53553 | -62.12803 | 5164 ft | 215 kts | 251° |
| 2026-05-09 20:35 | -38.53951 | -62.14612 | 4959 ft | 207 kts | 249° |
| 2026-05-09 20:35 | -38.54362 | -62.16346 | 4695 ft | 203 kts | 249° |
| 2026-05-09 20:35 | -38.54765 | -62.18034 | 4451 ft | 194 kts | 249° |
| 2026-05-09 20:36 | -38.55178 | -62.19632 | 4195 ft | 186 kts | 239° |
| 2026-05-09 20:36 | -38.56077 | -62.20717 | 3843 ft | 179 kts | 197° |
| 2026-05-09 20:36 | -38.57306 | -62.20702 | 3576 ft | 179 kts | 175° |
| 2026-05-09 20:36 | -38.58528 | -62.20412 | 3313 ft | 176 kts | 175° |
| 2026-05-09 20:37 | -38.59724 | -62.20110 | 3032 ft | 174 kts | 173° |
| 2026-05-09 20:37 | -38.60866 | -62.19753 | 2777 ft | 169 kts | 172° |
| 2026-05-09 20:37 | -38.62008 | -62.19346 | 2423 ft | 169 kts | 170° |
| 2026-05-09 20:37 | -38.63129 | -62.18908 | 2078 ft | 169 kts | 171° |
| 2026-05-09 20:38 | -38.64248 | -62.18491 | 1764 ft | 166 kts | 171° |
| 2026-05-09 20:38 | -38.65365 | -62.18077 | 1513 ft | 165 kts | 171° |
| 2026-05-09 20:38 | -38.66441 | -62.17672 | 1345 ft | 155 kts | 172° |
| 2026-05-09 20:38 | -38.67428 | -62.17301 | 1154 ft | 143 kts | 172° |
| 2026-05-09 20:39 | -38.68359 | -62.16965 | 896 ft | 137 kts | 172° |
| 2026-05-09 20:39 | -38.69288 | -62.16620 | 690 ft | 138 kts | 172° |
| 2026-05-09 20:39 | -38.70218 | -62.16277 | 574 ft | 139 kts | 169° |
| 2026-05-09 20:39 | -38.71133 | -62.15935 | 397 ft | 138 kts | 167° |
| 2026-05-09 20:40 | -38.72049 | -62.15594 | 265 ft | 131 kts | 161° |
| 2026-05-09 20:40 | -38.72843 | -62.15297 | 256 ft | 103 kts | 163° |
| 2026-05-09 20:40 | -38.73327 | -62.15120 | 257 ft | 45 kts | 164° |
| 2026-05-09 20:40 | -38.73489 | -62.15060 | 259 ft | 4 kts | 164° |
| 2026-05-09 20:41 | -38.73522 | -62.15048 | 259 ft | 6 kts | 164° |
| 2026-05-09 20:41 | -38.73567 | -62.15032 | 259 ft | 8 kts | 164° |
| 2026-05-09 20:41 | -38.73621 | -62.15012 | 259 ft | 9 kts | 164° |
| 2026-05-09 20:41 | -38.73683 | -62.14992 | 259 ft | 9 kts | 179° |
| 2026-05-09 20:42 | -38.73738 | -62.15025 | 259 ft | 9 kts | 225° |
| 2026-05-09 20:42 | -38.73762 | -62.15101 | 258 ft | 10 kts | 269° |
| 2026-05-09 20:42 | -38.73748 | -62.15192 | 257 ft | 10 kts | 301° |
| 2026-05-09 20:42 | -38.73684 | -62.15239 | 257 ft | 11 kts | 342° |
| 2026-05-09 20:43 | -38.73607 | -62.15268 | 257 ft | 12 kts | 343° |
| 2026-05-09 20:43 | -38.73519 | -62.15301 | 257 ft | 14 kts | 344° |
| 2026-05-09 20:43 | -38.73421 | -62.15336 | 257 ft | 15 kts | 344° |
| 2026-05-09 20:43 | -38.73315 | -62.15375 | 257 ft | 16 kts | 344° |
| 2026-05-09 20:44 | -38.73203 | -62.15416 | 257 ft | 17 kts | 344° |
| 2026-05-09 20:44 | -38.73082 | -62.15461 | 257 ft | 19 kts | 344° |
| 2026-05-09 20:44 | -38.72972 | -62.15471 | 257 ft | 16 kts | 29° |
| 2026-05-09 20:44 | -38.72892 | -62.15366 | 256 ft | 17 kts | 47° |
| 2026-05-09 20:45 | -38.72785 | -62.15305 | 256 ft | 18 kts | 346° |
| 2026-05-09 20:45 | -38.72664 | -62.15365 | 256 ft | 19 kts | 339° |
| 2026-05-09 20:45 | -38.72538 | -62.15414 | 258 ft | 19 kts | 344° |
| 2026-05-09 20:45 | -38.72410 | -62.15462 | 258 ft | 19 kts | 343° |
| 2026-05-09 20:46 | -38.72279 | -62.15513 | 259 ft | 20 kts | 346° |
| 2026-05-09 20:46 | -38.72141 | -62.15561 | 258 ft | 21 kts | 345° |
| 2026-05-09 20:46 | -38.71996 | -62.15616 | 257 ft | 22 kts | 343° |
| 2026-05-09 20:46 | -38.71848 | -62.15673 | 258 ft | 22 kts | 344° |
| 2026-05-09 20:47 | -38.71694 | -62.15728 | 258 ft | 22 kts | 344° |
| 2026-05-09 20:47 | -38.71595 | -62.15772 | 258 ft | 13 kts | 324° |
| 2026-05-09 20:47 | -38.71566 | -62.15874 | 258 ft | 13 kts | 255° |
| 2026-05-09 20:47 | -38.71610 | -62.15977 | 257 ft | 13 kts | 238° |
| 2026-05-09 20:48 | -38.71657 | -62.16075 | 257 ft | 11 kts | 244° |
| 2026-05-09 20:48 | -38.71661 | -62.16121 | 257 ft | 2 kts | 287° |
| 2026-05-09 20:48 | -38.71659 | -62.16127 | 257 ft | 1 kts | 287° |
| 2026-05-09 20:48 | -38.71649 | -62.16172 | 257 ft | 7 kts | 287° |
| 2026-05-09 20:49 | -38.71642 | -62.16238 | 257 ft | 8 kts | 266° |
| 2026-05-09 20:49 | -38.71644 | -62.16288 | 257 ft | 3 kts | 276° |
| 2026-05-09 20:49 | -38.71643 | -62.16296 | 257 ft | 0 kts | 276° |